createdAt,value
2023-01-25T00:01:15.300Z,33.85
2023-01-25T00:03:42.430Z,27.77
2023-01-25T00:06:17.110Z,25.20
2023-01-25T00:08:45.793Z,23.60
2023-01-25T00:11:21.053Z,26.10
2023-01-25T00:13:55.455Z,25.50
2023-01-25T00:16:23.213Z,23.65
2023-01-25T00:18:50.257Z,21.25
2023-01-25T00:21:29.070Z,20.15
2023-01-25T00:23:57.467Z,17.58
2023-01-25T00:26:31.138Z,19.90
2023-01-25T00:28:58.248Z,19.88
2023-01-25T00:31:42.180Z,17.63
2023-01-25T00:34:34.070Z,17.08
2023-01-25T00:37:25.638Z,16.50
2023-01-25T00:40:00.312Z,16.48
2023-01-25T00:42:28.094Z,14.73
2023-01-25T00:45:02.068Z,13.23
2023-01-25T00:47:29.568Z,12.90
2023-01-25T00:49:56.867Z,12.55
2023-01-25T00:52:31.100Z,12.50
2023-01-25T00:55:05.514Z,11.35
2023-01-25T00:57:32.878Z,11.25
2023-01-25T01:00:00.698Z,10.27
2023-01-25T01:02:35.130Z,9.98
2023-01-25T01:05:16.615Z,9.80
2023-01-25T01:07:51.151Z,9.05
2023-01-25T01:10:19.699Z,9.15
2023-01-25T01:12:47.005Z,8.32
2023-01-25T01:15:20.118Z,8.05
2023-01-25T01:17:47.077Z,8.15
2023-01-25T01:20:15.207Z,8.45
2023-01-25T01:22:53.473Z,8.52
2023-01-25T01:25:20.632Z,9.48
2023-01-25T01:27:55.110Z,9.07
2023-01-25T01:30:23.838Z,9.15
2023-01-25T01:32:51.985Z,9.40
2023-01-25T01:35:26.553Z,8.77
2023-01-25T01:38:01.188Z,9.13
2023-01-25T01:40:28.809Z,9.13
2023-01-25T01:43:15.342Z,9.90
2023-01-25T01:45:49.409Z,10.15
2023-01-25T01:48:45.063Z,10.05
2023-01-25T01:51:58.242Z,9.68
2023-01-25T01:55:03.170Z,10.23
2023-01-25T01:57:42.506Z,10.90
2023-01-25T02:00:23.161Z,10.90
2023-01-25T02:02:51.296Z,11.13
2023-01-25T02:06:02.829Z,10.35
2023-01-25T02:08:33.085Z,11.05
2023-01-25T02:11:08.647Z,12.32
2023-01-25T02:13:36.312Z,11.95
2023-01-25T02:16:10.125Z,10.95
2023-01-25T02:18:37.134Z,11.35
2023-01-25T02:21:11.112Z,11.70
2023-01-25T02:24:16.250Z,12.10
2023-01-25T02:26:43.336Z,12.75
2023-01-25T02:29:10.314Z,11.88
2023-01-25T02:31:44.201Z,11.98
2023-01-25T02:34:11.303Z,11.30
2023-01-25T02:36:45.172Z,11.55
2023-01-25T02:39:15.075Z,11.18
2023-01-25T02:41:50.066Z,11.88
2023-01-25T02:44:29.194Z,12.10
2023-01-25T02:46:56.209Z,11.55
2023-01-25T02:49:30.145Z,11.20
2023-01-25T02:52:04.118Z,13.00
2023-01-25T02:54:31.206Z,12.15
2023-01-25T02:57:05.176Z,11.43
2023-01-25T02:59:32.216Z,12.35
2023-01-25T03:01:59.247Z,15.30
2023-01-25T03:04:33.114Z,15.30
2023-01-25T03:07:00.127Z,15.93
2023-01-25T03:09:34.233Z,16.10
2023-01-25T03:12:01.393Z,14.32
2023-01-25T03:14:35.124Z,14.93
2023-01-25T03:17:08.164Z,15.63
2023-01-25T03:19:42.163Z,15.10
2023-01-25T03:22:09.289Z,13.65
2023-01-25T03:24:43.238Z,13.73
2023-01-25T03:27:10.225Z,12.85
2023-01-25T03:29:38.047Z,13.80
2023-01-25T03:32:12.201Z,13.25
2023-01-25T03:34:39.266Z,13.40
2023-01-25T03:37:13.276Z,13.23
2023-01-25T03:39:40.908Z,13.65
2023-01-25T03:42:14.112Z,14.00
2023-01-25T03:44:41.221Z,13.00
2023-01-25T03:47:08.332Z,11.85
2023-01-25T03:49:42.233Z,12.05
2023-01-25T03:52:09.255Z,12.18
2023-01-25T03:54:43.168Z,10.40
2023-01-25T03:57:10.302Z,12.27
2023-01-25T03:59:44.169Z,11.10
2023-01-25T04:02:11.322Z,10.75
2023-01-25T04:04:38.310Z,11.18
2023-01-25T04:07:12.156Z,11.90
2023-01-25T04:09:39.230Z,12.00
2023-01-25T04:12:06.501Z,17.98
2023-01-25T04:14:44.751Z,52.88
2023-01-25T04:17:11.959Z,65.30
2023-01-25T04:19:45.144Z,54.83
2023-01-25T04:22:12.271Z,45.55
2023-01-25T04:24:39.339Z,64.78
2023-01-25T04:27:13.196Z,23.75
2023-01-25T04:29:42.013Z,14.95
2023-01-25T04:32:16.305Z,16.00
2023-01-25T04:34:43.456Z,19.17
2023-01-25T04:37:17.307Z,20.00
2023-01-25T04:39:44.385Z,18.58
2023-01-25T04:42:11.364Z,31.17
2023-01-25T04:44:45.183Z,28.92
2023-01-25T04:47:12.249Z,25.63
2023-01-25T04:49:52.216Z,18.92
2023-01-25T04:52:19.623Z,16.35
2023-01-25T04:54:53.239Z,14.35
2023-01-25T04:57:20.405Z,14.15
2023-01-25T04:59:47.391Z,17.88
2023-01-25T05:02:21.249Z,22.35
2023-01-25T05:04:48.340Z,22.48
2023-01-25T05:07:22.304Z,20.85
2023-01-25T05:09:49.322Z,18.13
2023-01-25T05:12:16.383Z,15.52
2023-01-25T05:14:50.211Z,14.00
2023-01-25T05:17:17.168Z,13.57
2023-01-25T05:19:50.236Z,12.55
2023-01-25T05:22:18.339Z,11.15
2023-01-25T05:24:52.192Z,11.90
2023-01-25T05:27:26.227Z,11.25
2023-01-25T05:29:53.409Z,12.40
2023-01-25T05:32:21.973Z,13.93
2023-01-25T05:34:55.244Z,12.27
2023-01-25T05:37:22.358Z,13.73
2023-01-25T05:39:56.264Z,13.45
2023-01-25T05:42:23.293Z,12.43
2023-01-25T05:44:57.184Z,12.45
2023-01-25T05:47:24.158Z,12.60
2023-01-25T05:49:57.250Z,12.48
2023-01-25T05:52:24.250Z,11.23
2023-01-25T05:54:57.248Z,11.82
2023-01-25T05:57:24.354Z,11.10
2023-01-25T05:59:51.461Z,11.27
2023-01-25T06:03:37.868Z,9.90
2023-01-25T06:06:05.181Z,10.00
2023-01-25T06:08:32.501Z,10.95
2023-01-25T06:11:12.883Z,10.60
2023-01-25T06:13:46.850Z,10.88
2023-01-25T06:16:13.953Z,11.13
2023-01-25T06:18:47.876Z,12.07
2023-01-25T06:21:21.804Z,11.65
2023-01-25T06:23:48.906Z,13.00
2023-01-25T06:26:16.074Z,12.80
2023-01-25T06:28:50.685Z,13.07
2023-01-25T06:31:18.854Z,12.30
2023-01-25T06:33:58.856Z,13.90
2023-01-25T06:36:26.821Z,14.57
2023-01-25T06:39:00.825Z,11.82
2023-01-25T06:41:27.832Z,12.80
2023-01-25T06:44:01.807Z,13.15
2023-01-25T06:46:28.853Z,15.85
2023-01-25T06:49:02.785Z,12.05
2023-01-25T06:51:29.863Z,12.20
2023-01-25T06:54:03.877Z,12.10
2023-01-25T06:56:30.852Z,11.30
2023-01-25T06:59:04.797Z,10.52
2023-01-25T07:01:31.748Z,11.38
2023-01-25T07:04:08.058Z,11.02
2023-01-25T07:06:35.124Z,12.02
2023-01-25T07:09:13.859Z,24.58
2023-01-25T07:11:40.958Z,24.40
2023-01-25T07:14:14.812Z,20.95
2023-01-25T07:16:48.863Z,20.95
2023-01-25T07:19:15.738Z,18.27
2023-01-25T07:21:48.853Z,15.10
2023-01-25T07:24:17.662Z,18.75
2023-01-25T07:26:44.754Z,22.17
2023-01-25T07:29:22.864Z,24.38
2023-01-25T07:31:49.897Z,21.92
2023-01-25T07:34:16.890Z,21.13
2023-01-25T07:36:50.864Z,20.65
2023-01-25T07:39:17.880Z,18.55
2023-01-25T07:41:51.838Z,15.18
2023-01-25T07:44:25.875Z,13.93
2023-01-25T07:46:53.922Z,13.13
2023-01-25T07:49:27.851Z,12.73
2023-01-25T07:51:54.935Z,13.32
2023-01-25T07:54:23.730Z,12.88
2023-01-25T07:56:56.797Z,12.77
2023-01-25T07:59:24.700Z,12.32
2023-01-25T08:01:57.823Z,13.52
2023-01-25T08:04:24.864Z,17.08
2023-01-25T08:06:57.845Z,16.80
2023-01-25T08:09:24.862Z,13.90
2023-01-25T08:11:51.965Z,12.63
2023-01-25T08:14:25.894Z,13.00
2023-01-25T08:16:52.847Z,15.55
2023-01-25T08:19:19.907Z,14.50
2023-01-25T08:21:53.851Z,13.38
2023-01-25T08:24:21.121Z,12.50
2023-01-25T08:26:54.857Z,12.20
2023-01-25T08:29:21.871Z,12.07
2023-01-25T08:31:55.894Z,12.60
2023-01-25T08:34:29.856Z,12.50
2023-01-25T08:36:56.875Z,12.20
2023-01-25T08:39:30.837Z,13.32
2023-01-25T08:41:57.912Z,15.68
2023-01-25T08:44:31.816Z,15.52
2023-01-25T08:47:06.181Z,15.70
2023-01-25T08:49:40.119Z,18.80
2023-01-25T08:52:07.377Z,18.88
2023-01-25T08:54:40.973Z,21.20
2023-01-25T08:57:07.891Z,24.73
2023-01-25T08:59:41.894Z,26.65
2023-01-25T09:02:18.933Z,26.30
2023-01-25T09:04:45.940Z,35.00
2023-01-25T09:07:19.939Z,40.55
2023-01-25T09:09:46.994Z,42.38
2023-01-25T09:12:14.020Z,41.38
2023-01-25T09:14:47.882Z,44.47
2023-01-25T09:17:14.872Z,40.67
2023-01-25T09:19:47.933Z,36.90
2023-01-25T09:22:14.867Z,34.40
2023-01-25T09:24:48.965Z,27.42
2023-01-25T09:27:16.023Z,23.83
2023-01-25T09:30:01.334Z,20.63
2023-01-25T09:32:29.255Z,17.17
2023-01-25T09:35:02.842Z,14.88
2023-01-25T09:37:29.810Z,13.65
2023-01-25T09:40:02.942Z,14.45
2023-01-25T09:42:56.818Z,13.45
2023-01-25T09:45:38.941Z,13.85
2023-01-25T09:48:20.928Z,13.95
2023-01-25T09:51:27.002Z,12.40
2023-01-25T09:54:00.944Z,11.88
2023-01-25T09:56:33.596Z,10.88
2023-01-25T09:59:10.943Z,10.45
2023-01-25T10:02:31.315Z,11.05
2023-01-25T10:05:12.894Z,11.43
2023-01-25T10:08:04.090Z,11.13
2023-01-25T10:10:44.946Z,11.27
2023-01-25T10:13:19.885Z,11.98
2023-01-25T10:15:57.414Z,11.48
2023-01-25T10:18:48.919Z,11.63
2023-01-25T10:21:37.966Z,11.73
2023-01-25T10:24:40.702Z,12.80
2023-01-25T10:27:42.916Z,11.50
2023-01-25T10:30:50.962Z,12.15
2023-01-25T10:33:19.721Z,13.20
2023-01-25T10:35:48.576Z,13.27
2023-01-25T10:38:32.947Z,12.27
2023-01-25T10:41:05.362Z,14.65
2023-01-25T10:43:39.056Z,14.38
2023-01-25T10:46:23.717Z,10.30
2023-01-25T10:48:56.971Z,9.30
2023-01-25T10:51:34.170Z,9.73
2023-01-25T11:16:03.981Z,13.27
2023-01-25T11:53:12.967Z,8.05
2023-01-25T11:56:41.166Z,8.50
2023-01-25T11:59:33.824Z,6.72
2023-01-25T12:02:33.037Z,6.75
2023-01-25T12:05:24.633Z,6.65
2023-01-25T12:08:07.177Z,7.03
2023-01-25T12:11:17.132Z,6.55
2023-01-25T12:14:21.457Z,5.55
2023-01-25T12:17:47.358Z,5.75
2023-01-25T12:21:13.389Z,6.90
2023-01-25T12:24:38.912Z,6.38
2023-01-25T12:27:40.035Z,6.35
2023-01-25T12:31:05.098Z,5.88
2023-01-25T12:33:45.729Z,6.35
2023-01-25T12:36:52.060Z,7.35
2023-01-25T12:39:52.129Z,6.20
2023-01-25T12:42:32.970Z,7.20
2023-01-25T12:45:05.938Z,6.82
2023-01-25T12:48:11.021Z,6.32
2023-01-25T12:51:02.948Z,6.65
2023-01-25T12:53:42.543Z,5.40
2023-01-25T12:56:33.467Z,6.43
2023-01-25T12:59:35.018Z,6.10
2023-01-25T13:10:33.182Z,7.20
2023-01-25T13:13:24.730Z,6.75
2023-01-25T13:15:59.001Z,6.80
2023-01-25T13:18:30.531Z,7.60
2023-01-25T13:21:06.042Z,7.35
2023-01-25T13:23:44.224Z,7.65
2023-01-25T13:26:29.961Z,7.20
2023-01-25T13:29:17.017Z,8.02
2023-01-25T13:31:53.321Z,7.70
2023-01-25T13:34:43.189Z,7.82
2023-01-25T13:37:31.078Z,7.78
2023-01-25T13:40:43.084Z,7.13
2023-01-25T13:43:22.962Z,7.10
2023-01-25T13:45:52.524Z,7.65
2023-01-25T13:48:31.505Z,7.25
2023-01-25T13:51:04.395Z,7.38
2023-01-25T13:53:38.059Z,7.55
2023-01-25T13:56:11.970Z,7.00
2023-01-25T13:58:53.068Z,6.63
2023-01-25T14:01:20.632Z,6.65
2023-01-25T14:04:06.058Z,6.30
2023-01-25T14:06:46.086Z,6.20
2023-01-25T14:09:17.900Z,8.73
2023-01-25T14:11:57.079Z,8.43
2023-01-25T14:14:36.467Z,7.90
2023-01-25T14:17:24.153Z,6.75
2023-01-25T14:19:55.170Z,6.72
2023-01-25T14:22:34.081Z,6.65
2023-01-25T14:25:32.020Z,6.90
2023-01-25T14:28:10.032Z,6.97
2023-01-25T14:30:37.156Z,7.78
2023-01-25T14:33:40.022Z,7.20
2023-01-25T14:36:24.364Z,6.82
2023-01-25T14:38:59.051Z,6.68
2023-01-25T14:41:28.994Z,7.07
2023-01-25T14:43:58.363Z,6.93
2023-01-25T14:46:39.090Z,6.45
2023-01-25T14:49:12.204Z,7.28
2023-01-25T14:52:05.114Z,7.97
2023-01-25T14:54:37.448Z,8.10
2023-01-25T14:57:13.069Z,8.55
2023-01-25T14:59:45.264Z,14.82
2023-01-25T15:02:41.221Z,10.27
2023-01-25T15:05:23.188Z,8.77
2023-01-25T15:08:04.043Z,8.55
2023-01-25T15:10:39.095Z,8.15
2023-01-25T15:13:15.576Z,7.95
2023-01-25T15:16:07.016Z,7.35
2023-01-25T15:18:51.609Z,7.72
2023-01-25T15:21:26.047Z,9.02
2023-01-25T15:23:54.017Z,8.13
2023-01-25T15:26:38.079Z,7.20
2023-01-25T15:29:17.063Z,7.50
2023-01-25T15:31:51.090Z,7.93
2023-01-25T15:34:21.148Z,10.27
2023-01-25T15:36:55.106Z,10.23
2023-01-25T15:39:22.246Z,11.38
2023-01-25T15:41:56.191Z,10.40
2023-01-25T15:44:23.290Z,13.55
2023-01-25T15:46:51.171Z,10.85
2023-01-25T15:49:33.106Z,10.18
2023-01-25T15:52:07.105Z,10.52
2023-01-25T15:54:48.586Z,14.23
2023-01-25T15:57:32.173Z,18.42
2023-01-25T16:00:06.115Z,18.27
2023-01-25T16:02:33.059Z,18.95
2023-01-25T16:05:00.130Z,20.63
2023-01-25T16:07:36.189Z,21.60
2023-01-25T16:10:10.431Z,22.70
2023-01-25T16:12:37.747Z,20.42
2023-01-25T16:15:12.149Z,22.80
2023-01-25T16:17:46.155Z,23.70
2023-01-25T16:20:21.034Z,22.45
2023-01-25T16:22:54.104Z,22.80
2023-01-25T16:25:21.245Z,30.02
2023-01-25T16:27:56.081Z,38.47
2023-01-25T16:30:25.032Z,51.42
2023-01-25T16:32:59.044Z,46.35
2023-01-25T16:35:32.075Z,32.83
2023-01-25T16:37:59.084Z,23.95
2023-01-25T16:40:35.103Z,22.42
2023-01-25T16:43:09.175Z,21.02
2023-01-25T16:45:36.215Z,22.15
2023-01-25T16:48:10.058Z,20.70
2023-01-25T16:50:37.106Z,21.88
2023-01-25T16:53:10.091Z,20.42
2023-01-25T16:55:37.828Z,21.95
2023-01-25T16:58:04.799Z,25.83
2023-01-25T17:00:38.101Z,24.10
2023-01-25T17:03:11.180Z,20.50
2023-01-25T17:05:45.095Z,21.08
2023-01-25T17:08:19.113Z,18.45
2023-01-25T17:10:59.143Z,16.75
2023-01-25T17:13:26.183Z,18.00
2023-01-25T17:16:03.187Z,18.80
2023-01-25T17:18:30.173Z,18.13
2023-01-25T17:21:01.903Z,16.73
2023-01-25T17:23:35.143Z,19.55
2023-01-25T17:26:19.106Z,18.80
2023-01-25T17:28:53.168Z,16.40
2023-01-25T17:31:29.127Z,18.63
2023-01-25T17:34:03.131Z,18.10
2023-01-25T17:36:30.096Z,17.60
2023-01-25T17:39:07.153Z,13.63
2023-01-25T17:41:34.393Z,12.57
2023-01-25T17:44:08.169Z,13.00
2023-01-25T17:46:42.138Z,10.20
2023-01-25T17:49:12.415Z,11.00
2023-01-25T17:51:46.199Z,10.63
2023-01-25T17:54:13.334Z,8.88
2023-01-25T17:56:47.217Z,9.07
2023-01-25T17:59:14.316Z,9.77
2023-01-25T18:01:41.866Z,10.23
2023-01-25T18:04:16.204Z,10.68
2023-01-25T18:06:43.319Z,11.40
2023-01-25T18:09:17.152Z,12.70
2023-01-25T18:11:44.200Z,10.80
2023-01-25T18:14:19.184Z,8.90
2023-01-25T18:16:46.126Z,9.85
2023-01-25T18:19:20.185Z,11.00
2023-01-25T18:21:47.159Z,10.07
2023-01-25T18:24:40.151Z,11.00
2023-01-25T18:27:19.355Z,14.85
2023-01-25T18:30:11.320Z,14.43
2023-01-25T18:32:38.376Z,14.68
2023-01-25T18:35:12.561Z,16.80
2023-01-25T18:37:39.893Z,16.58
2023-01-25T18:40:08.013Z,18.55
2023-01-25T18:42:41.216Z,16.95
2023-01-25T18:45:12.040Z,17.52
2023-01-25T18:47:46.154Z,17.10
2023-01-25T18:50:13.372Z,15.68
2023-01-25T18:52:47.220Z,14.05
2023-01-25T18:55:14.187Z,13.63
2023-01-25T18:57:41.204Z,14.18
2023-01-25T19:00:15.189Z,15.38
2023-01-25T19:02:42.203Z,15.27
2023-01-25T19:05:16.246Z,13.98
2023-01-25T19:07:56.114Z,13.77
2023-01-25T19:10:29.190Z,13.23
2023-01-25T19:13:03.146Z,13.15
2023-01-25T19:15:30.195Z,15.18
2023-01-25T19:18:04.294Z,16.70
2023-01-25T19:20:31.367Z,13.73
2023-01-25T19:23:05.224Z,13.30
2023-01-25T19:25:32.209Z,13.05
2023-01-25T19:28:06.193Z,12.68
2023-01-25T19:30:33.254Z,13.68
2023-01-25T19:33:07.266Z,15.13
2023-01-25T19:35:42.273Z,16.67
2023-01-25T19:38:09.432Z,16.42
2023-01-25T19:40:43.218Z,15.40
2023-01-25T19:43:10.287Z,18.95
2023-01-25T19:45:44.235Z,16.77
2023-01-25T19:48:11.216Z,15.88
2023-01-25T19:50:45.289Z,17.50
2023-01-25T19:53:12.447Z,17.33
2023-01-25T19:55:46.253Z,17.70
2023-01-25T19:58:20.211Z,23.70
2023-01-25T20:00:47.273Z,22.50
2023-01-25T20:03:21.251Z,18.85
2023-01-25T20:05:58.189Z,18.02
2023-01-25T20:08:34.256Z,19.50
2023-01-25T20:11:02.879Z,17.75
2023-01-25T20:13:29.930Z,17.63
2023-01-25T20:16:04.273Z,17.08
2023-01-25T20:18:31.935Z,17.23
2023-01-25T20:21:17.246Z,19.33
2023-01-25T20:23:48.098Z,18.50
2023-01-25T20:26:27.178Z,19.13
2023-01-25T20:28:55.175Z,20.75
2023-01-25T20:31:43.260Z,18.52
2023-01-25T20:34:28.277Z,19.63
2023-01-25T20:37:02.354Z,22.33
2023-01-25T20:39:29.495Z,22.30
2023-01-25T20:41:56.491Z,20.73
2023-01-25T20:44:30.254Z,22.10
2023-01-25T20:47:04.193Z,20.30
2023-01-25T20:49:31.192Z,20.52
2023-01-25T20:51:58.229Z,21.73
2023-01-25T20:54:32.232Z,20.73
2023-01-25T20:56:59.249Z,23.30
2023-01-25T20:59:33.188Z,23.45
2023-01-25T21:02:00.345Z,21.60
2023-01-25T21:04:27.378Z,18.63
2023-01-25T21:07:01.214Z,17.58
2023-01-25T21:09:28.384Z,15.80
2023-01-25T21:12:02.198Z,16.20
2023-01-25T21:14:29.221Z,17.00
2023-01-25T21:16:56.342Z,17.08
2023-01-25T21:19:30.253Z,16.20
2023-01-25T21:22:03.435Z,15.45
2023-01-25T21:24:30.567Z,16.35
2023-01-25T21:27:04.246Z,16.50
2023-01-25T21:29:31.541Z,19.02
2023-01-25T21:31:58.735Z,16.98
2023-01-25T21:34:32.249Z,16.98
2023-01-25T21:36:59.723Z,17.23
2023-01-25T21:39:34.246Z,18.48
2023-01-25T21:42:01.452Z,16.15
2023-01-25T21:44:28.498Z,17.75
2023-01-25T21:47:28.999Z,19.92
2023-01-25T21:49:54.186Z,18.63
2023-01-25T21:52:27.263Z,18.45
2023-01-25T21:54:54.256Z,19.50
2023-01-25T21:57:28.243Z,24.80
2023-01-25T21:59:55.334Z,23.73
2023-01-25T22:02:22.450Z,19.73
2023-01-25T22:04:56.224Z,22.30
2023-01-25T22:07:29.292Z,21.85
2023-01-25T22:09:56.334Z,19.42
2023-01-25T22:12:30.315Z,22.20
2023-01-25T22:14:57.474Z,21.13
2023-01-25T22:17:24.687Z,20.40
2023-01-25T22:19:58.361Z,21.50
2023-01-25T22:22:25.498Z,21.63
2023-01-25T22:24:59.289Z,20.88
2023-01-25T22:27:56.332Z,18.92
2023-01-25T22:30:23.531Z,19.10
2023-01-25T22:32:57.303Z,18.95
2023-01-25T22:35:24.308Z,20.88
2023-01-25T22:38:05.279Z,19.05
2023-01-25T22:40:39.309Z,19.90
2023-01-25T22:43:06.416Z,19.35
2023-01-25T22:45:40.471Z,18.83
2023-01-25T22:48:07.485Z,19.08
2023-01-25T22:50:43.269Z,18.60
2023-01-25T22:53:10.272Z,18.50
2023-01-25T22:55:53.396Z,19.38
2023-01-25T22:58:20.529Z,20.00
2023-01-25T23:00:54.352Z,19.17
2023-01-25T23:03:21.469Z,18.73
2023-01-25T23:05:48.619Z,18.48
2023-01-25T23:08:22.368Z,19.38
2023-01-25T23:10:52.407Z,19.05
2023-01-25T23:13:27.465Z,20.67
2023-01-25T23:15:57.294Z,21.45
2023-01-25T23:18:31.282Z,18.88
2023-01-25T23:21:02.553Z,19.70
2023-01-25T23:27:27.267Z,16.60
2023-01-25T23:30:01.337Z,16.40
2023-01-25T23:32:28.976Z,17.23
2023-01-25T23:35:02.426Z,17.73
2023-01-25T23:37:29.525Z,17.40
2023-01-25T23:40:05.388Z,18.08
2023-01-25T23:42:39.507Z,18.80
2023-01-25T23:45:08.489Z,19.30
2023-01-25T23:47:46.382Z,19.13
2023-01-25T23:50:20.390Z,19.50
2023-01-25T23:52:54.408Z,19.65
2023-01-25T23:55:21.483Z,20.40
2023-01-25T23:57:55.372Z,20.10
